Latest Weather Observations for Edinburgh

IDS60801

Issued at 11:01 am CDT Monday 23 January 2017 (issued every 30 minutes, with the page automatically refreshed every 10 minutes)

About weather observations | Map of weather stations | Latest weather observations for SA | Other Formats
Station Details ID: 023083 Name: EDINBURGH RAAF Lat: -34.71 Lon: 138.62 Height: 16.54 m
Data from the previous 72 hours. | See also: Recent months at Edinburgh
Date/Time
CDT
Temp
°C
App
Temp
°C
Dew
Point
°C
Rel
Hum
%
Delta-T
°C
Wind Press
QNH
hPa
Press
MSL
hPa
Rain since
9am
mm
Dir  Spd
km/h
Gust
km/h
Spd
kts
Gust
kts
23/11:00am 29.9 27.9 14.0 37 9.6 W 17 20 9 11 1005.3 1005.3 0.0
23/10:30am 31.3 30.1 11.7 30 11.5 NW 9 13 5 7 1004.5 1004.5 0.0
23/10:00am 31.4 28.7 10.2 27 12.1 N 15 20 8 11 1004.5 1004.5 0.0
23/09:30am 30.6 28.2 10.0 28 11.7 NNE 13 20 7 11 1004.5 1004.5 0.0
23/09:00am 30.4 27.3 10.4 29 11.4 NE 17 22 9 12 1004.3 1004.3 0.0
23/08:30am 28.9 25.6 9.6 30 10.8 NNE 17 20 9 11 1004.5 1004.5 0.0
23/08:00am 27.4 26.9 12.6 40 8.6 NNE 7 13 4 7 1004.5 1004.5 0.0
23/07:30am 24.7 23.8 12.6 47 7.0 NE 9 11 5 6 1004.1 1004.1 0.0
23/07:00am 22.7 22.9 12.9 54 5.6 NE 4 7 2 4 1004.1 1004.1 0.0
23/06:30am 22.5 22.4 13.3 56 5.3 NNE 6 7 3 4 1004.1 1004.1 0.0
23/06:00am 22.0 22.1 14.4 62 4.5 NNE 7 11 4 6 1004.0 1004.0 0.0
23/05:30am 22.6 23.1 15.0 62 4.5 NNW 6 7 3 4 1004.0 1004.0 0.0
23/05:00am 23.4 23.5 14.4 57 5.3 NW 7 11 4 6 1003.8 1003.8 0.0
23/04:30am 25.8 23.6 9.2 35 9.1 NE 11 17 6 9 1003.9 1003.9 0.0
23/04:00am 25.3 23.5 9.6 37 8.6 NE 9 11 5 6 1004.1 1004.1 0.0
23/03:30am 27.6 24.4 6.9 27 11.0 E 13 20 7 11 1004.3 1004.3 0.0
23/03:00am 27.4 23.9 7.3 28 10.8 E 15 19 8 10 1004.3 1004.3 0.0
23/02:30am 26.2 23.7 8.2 32 9.7 NE 11 15 6 8 1005.0 1005.0 0.0
23/02:00am 25.2 24.5 12.1 44 7.5 NE 7 13 4 7 1005.9 1005.9 0.0
23/01:30am 25.3 24.6 13.2 47 7.1 SSW 9 11 5 6 1006.4 1006.4 0.0
23/01:00am 26.8 25.5 11.3 38 8.8 ESE 9 13 5 7 1006.8 1006.8 0.0
23/12:30am 25.6 26.3 16.2 56 5.8 SE 7 9 4 5 1007.3 1007.3 0.0
23/12:00am 24.4 25.0 17.6 66 4.3 SW 11 13 6 7 1007.6 1007.6 0.0
 
Date/Time
CDT
Temp
°C
App
Temp
°C
Dew
Point
°C
Rel
Hum
%
Delta-T
°C
Wind Press
QNH
hPa
Press
MSL
hPa
Rain since
9am
mm
Dir  Spd
km/h
Gust
km/h
Spd
kts
Gust
kts
22/11:30pm 24.8 24.5 16.5 60 5.1 SW 13 15 7 8 1007.3 1007.3 0.0
22/11:00pm 24.3 24.6 16.0 60 5.0 W 9 13 5 7 1007.3 1007.3 0.0
22/10:30pm 27.4 27.2 13.0 41 8.5 E 6 11 3 6 1007.0 1007.0 0.0
22/10:00pm 27.1 26.3 8.0 30 10.3 SSE 2 7 1 4 1006.9 1006.9 0.0
22/09:30pm 28.0 26.2 7.8 28 10.9 S 7 11 4 6 1007.2 1007.2 0.0
22/09:00pm 28.3 26.3 8.6 29 10.8 S 9 15 5 8 1007.4 1007.4 0.0
22/08:30pm 28.8 24.8 6.8 25 11.7 S 17 22 9 12 1007.6 1007.6 0.0
22/08:00pm 28.8 24.8 9.0 29 10.9 SW 20 26 11 14 1007.8 1007.8 0.0
22/07:30pm 30.0 27.8 9.5 28 11.5 SSW 11 13 6 7 1007.7 1007.7 0.0
22/07:00pm 32.1 29.3 8.4 23 13.2 SW 13 17 7 9 1007.6 1007.6 0.0
22/06:30pm 30.9 26.8 8.0 24 12.6 SW 19 22 10 12 1007.6 1007.6 0.0
22/06:00pm 30.4 26.3 8.7 26 12.1 SW 20 26 11 14 1007.6 1007.6 0.0
22/05:30pm 30.6 26.0 9.5 27 11.9 SW 24 28 13 15 1007.7 1007.7 0.0
22/05:00pm 30.6 26.9 10.0 28 11.7 WSW 20 24 11 13 1007.9 1007.9 0.0
22/04:30pm 31.6 28.4 8.6 24 12.8 SW 15 20 8 11 1008.0 1008.0 0.0
22/04:00pm 31.2 28.2 10.5 28 11.9 SW 17 20 9 11 1008.4 1008.4 0.0
22/03:30pm 30.5 26.9 10.5 29 11.4 WSW 20 26 11 14 1008.8 1008.7 0.0
22/03:00pm 30.8 27.1 9.6 27 12.0 WSW 19 24 10 13 1009.0 1008.9 0.0
22/02:30pm 31.1 28.1 9.3 26 12.3 WSW 15 20 8 11 1009.1 1009.0 0.0
22/02:00pm 30.7 26.5 8.4 25 12.3 SW 20 28 11 15 1009.5 1009.4 0.0
22/01:30pm 30.9 27.7 8.6 25 12.4 WNW 15 26 8 14 1009.9 1009.8 0.0
22/01:00pm 31.2 27.3 7.0 22 13.1 N 17 22 9 12 1010.4 1010.3 0.0
22/12:30pm 31.1 28.9 9.3 26 12.3 N 11 17 6 9 1010.9 1010.8 0.0
22/12:00pm 30.4 27.0 9.3 27 11.8 N 17 22 9 12 1011.4 1011.3 0.0
22/11:30am 29.4 25.3 8.5 27 11.5 NNE 20 32 11 17 1011.9 1011.8 0.0
22/11:00am 28.5 24.4 8.7 29 10.9 NE 20 32 11 17 1012.2 1012.1 0.0
22/10:30am 27.6 23.0 8.0 29 10.6 NNE 22 32 12 17 1012.4 1012.3 0.0
22/10:00am 26.9 23.5 10.6 36 9.2 NNE 19 22 10 12 1012.7 1012.6 0.0
22/09:30am 25.9 22.7 10.1 37 8.8 NNE 17 22 9 12 1012.8 1012.7 0.0
22/09:00am 24.0 21.9 11.0 44 7.3 NNE 13 17 7 9 1012.9 1012.8 0.0
22/08:30am 21.5 20.2 12.4 56 5.1 NNE 11 13 6 7 1012.7 1012.6 0.0
22/08:00am 19.3 18.4 12.6 65 3.8 N 9 11 5 6 1012.8 1012.7 0.0
22/07:30am 17.1 16.2 12.6 75 2.5 N 9 13 5 7 1012.5 1012.4 0.0
22/07:00am 15.2 14.8 12.5 84 1.5 N 6 9 3 5 1012.2 1012.1 0.0
22/06:30am 14.9 13.0 11.9 82 1.6 NNW 13 15 7 8 1012.2 1012.1 0.0
22/06:00am 17.7 15.9 10.8 64 3.7 NE 11 13 6 7 1011.7 1011.6 0.0
22/05:30am 20.3 19.0 9.8 51 5.6 E 7 11 4 6 1011.6 1011.5 0.0
22/05:00am 20.6 18.2 10.1 51 5.7 ENE 13 20 7 11 1011.5 1011.4 0.0
22/04:30am 20.9 18.6 10.4 51 5.7 E 13 24 7 13 1011.2 1011.1 0.0
22/04:00am 20.0 18.3 11.2 57 4.8 ENE 11 15 6 8 1011.5 1011.4 0.0
22/03:30am 19.1 18.3 11.7 62 4.1 ENE 7 11 4 6 1011.6 1011.5 0.0
22/03:00am 19.9 18.7 11.7 59 4.5 E 9 13 5 7 1011.7 1011.6 0.0
22/02:30am 19.8 19.1 12.1 61 4.3 E 7 13 4 7 1012.0 1011.9 0.0
22/02:00am 19.9 18.0 11.9 60 4.4 ESE 13 17 7 9 1012.4 1012.3 0.0
22/01:30am 19.8 17.6 12.1 61 4.3 ESE 15 22 8 12 1012.6 1012.5 0.0
22/01:00am 19.8 16.7 12.1 61 4.3 ESE 20 28 11 15 1012.7 1012.6 0.0
22/12:30am 20.0 16.8 11.8 59 4.6 ESE 20 30 11 16 1012.9 1012.8 0.0
22/12:00am 19.7 16.4 11.7 60 4.4 ESE 20 30 11 16 1012.9 1012.8 0.0
 
Date/Time
CDT
Temp
°C
App
Temp
°C
Dew
Point
°C
Rel
Hum
%
Delta-T
°C
Wind Press
QNH
hPa
Press
MSL
hPa
Rain since
9am
mm
Dir  Spd
km/h
Gust
km/h
Spd
kts
Gust
kts
21/11:30pm 19.9 16.3 11.7 59 4.5 ESE 22 35 12 19 1012.9 1012.8 0.0
21/11:00pm 20.2 17.5 11.7 58 4.7 ESE 17 26 9 14 1013.0 1012.9 0.0
21/10:30pm 20.4 17.3 12.1 59 4.6 ESE 20 28 11 15 1013.3 1013.2 0.0
21/10:00pm 21.0 18.5 12.2 57 4.9 ESE 17 28 9 15 1013.4 1013.3 0.0
21/09:30pm 21.9 19.4 12.2 54 5.5 SE 17 24 9 13 1013.3 1013.2 0.0
21/09:00pm 22.9 20.7 12.2 51 6.1 SE 15 22 8 12 1013.0 1012.9 0.0
21/08:30pm 22.8 21.5 13.8 57 5.2 S 13 17 7 9 1012.8 1012.7 0.0
21/08:00pm 23.4 20.7 13.0 52 6.0 SSW 19 22 10 12 1012.6 1012.5 0.0
21/07:30pm 23.8 20.4 12.4 48 6.5 SSW 22 26 12 14 1012.4 1012.3 0.0
21/07:00pm 24.2 20.5 12.8 49 6.6 SSW 24 28 13 15 1012.2 1012.1 0.0
21/06:30pm 24.5 20.5 13.1 49 6.6 SSW 26 30 14 16 1011.9 1011.8 0.0
21/06:00pm 24.8 20.3 12.7 47 7.0 SSW 28 33 15 18 1011.9 1011.8 0.0
21/05:30pm 25.5 21.3 12.4 44 7.5 SSW 26 32 14 17 1012.1 1012.0 0.0
21/05:00pm 26.1 22.9 14.2 48 7.1 SW 24 39 13 21 1012.3 1012.2 0.0
21/04:30pm 26.2 23.9 14.0 47 7.2 SSW 19 24 10 13 1012.5 1012.4 0.0
21/04:00pm 25.8 23.0 12.6 44 7.6 SSW 19 26 10 14 1012.7 1012.6 0.0
21/03:30pm 25.8 23.3 14.0 48 7.0 SW 20 30 11 16 1013.0 1012.9 0.0
21/03:15pm 25.4 22.5 12.9 45 7.3 SW 20 32 11 17 1013.1 1013.0 0.0
21/03:00pm 26.9 26.4 10.6 36 9.2 N 4 13 2 7 1013.2 1013.1 0.0
21/02:30pm 26.4 25.0 10.9 38 8.7 WSW 9 15 5 8 1013.4 1013.3 0.0
21/02:00pm 25.0 23.9 10.8 41 7.9 NNW 7 17 4 9 1013.7 1013.6 0.0
21/01:30pm 24.6 23.3 11.2 43 7.5 ENE 9 19 5 10 1013.9 1013.8 0.0
21/01:00pm 23.8 22.0 10.8 44 7.2 ENE 11 15 6 8 1014.2 1014.1 0.0
21/12:30pm 23.1 21.4 9.8 43 7.2 ENE 9 15 5 8 1014.6 1014.5 0.0
21/12:00pm 22.7 21.8 11.4 49 6.3 NE 7 15 4 8 1014.7 1014.6 0.0
21/11:30am 21.9 20.9 11.0 50 6.0 E 7 17 4 9 1014.9 1014.8 0.0
21/11:00am 21.1 19.1 10.0 49 6.0 ESE 11 17 6 9 1015.0 1014.9 0.0
21/10:30am 20.1 17.8 9.1 49 5.8 ENE 11 17 6 9 1015.5 1015.4 0.0
21/10:00am 19.6 17.9 9.8 53 5.2 ENE 9 15 5 8 1015.7 1015.6 0.0
21/09:30am 18.7 16.5 9.2 54 5.0 E 11 17 6 9 1015.8 1015.7 0.0
21/09:00am 18.1 15.9 9.5 57 4.5 ENE 11 17 6 9 1015.8 1015.7 0.0
21/08:30am 16.9 14.8 9.8 63 3.7 ENE 11 15 6 8 1015.9 1015.8 0.0
21/08:00am 16.1 13.8 10.4 69 3.0 ENE 13 17 7 9 1015.4 1015.3 0.0
21/07:30am 14.6 13.9 11.4 81 1.7 N 6 7 3 4 1015.0 1014.9 0.0
21/07:00am 13.5 12.6 10.7 83 1.5 N 6 7 3 4 1014.7 1014.6 0.0
21/06:30am 14.7 13.7 10.3 75 2.3 ESE 6 9 3 5 1014.3 1014.2 0.0
21/06:00am 14.5 13.4 10.1 75 2.3 ESE 6 7 3 4 1014.1 1014.0 0.0
21/05:30am 14.6 13.6 10.2 75 2.3 SE 6 9 3 5 1013.9 1013.8 0.0
21/05:00am 14.6 13.6 10.4 76 2.2 SSE 6 7 3 4 1013.8 1013.7 0.0
21/04:30am 14.5 13.6 10.5 77 2.1 SE 6 7 3 4 1013.5 1013.4 0.0
21/04:00am 13.7 12.9 10.9 83 1.5 ENE 6 7 3 4 1013.5 1013.4 0.0
21/03:30am 13.5 12.5 10.3 81 1.7 NE 6 9 3 5 1013.4 1013.3 0.0
21/03:00am 14.7 13.8 10.5 76 2.2 S 6 9 3 5 1013.3 1013.2 0.0
21/02:30am 14.6 13.6 10.4 76 2.2 S 6 9 3 5 1013.3 1013.2 0.0
21/02:00am 15.0 14.1 10.8 76 2.2 S 6 9 3 5 1013.3 1013.2 0.0
21/01:30am 15.5 13.9 10.1 70 2.8 S 9 13 5 7 1013.3 1013.2 0.0
21/01:00am 15.6 14.0 10.2 70 2.8 S 9 13 5 7 1013.4 1013.3 0.0
21/12:30am 15.6 14.4 10.2 70 2.8 SSE 7 11 4 6 1013.3 1013.2 0.0
21/12:00am 15.8 14.5 10.1 69 3.0 SSE 7 11 4 6 1013.1 1013.0 0.0
 
Date/Time
CDT
Temp
°C
App
Temp
°C
Dew
Point
°C
Rel
Hum
%
Delta-T
°C
Wind Press
QNH
hPa
Press
MSL
hPa
Rain since
9am
mm
Dir  Spd
km/h
Gust
km/h
Spd
kts
Gust
kts
20/11:30pm 16.2 14.2 10.3 68 3.1 SSE 11 15 6 8 1012.8 1012.7 0.0
20/11:00pm 16.5 14.5 10.1 66 3.4 SSE 11 15 6 8 1012.6 1012.5 0.0
20/10:30pm 16.9 14.0 9.8 63 3.7 SE 15 24 8 13 1012.3 1012.2 0.0
20/10:00pm 17.4 14.9 9.6 60 4.1 SSE 13 20 7 11 1011.8 1011.7 0.0
20/09:30pm 17.8 15.2 9.4 58 4.4 SSE 13 19 7 10 1011.4 1011.3 0.0
20/09:00pm 18.5 16.1 10.1 58 4.5 SE 13 17 7 9 1010.9 1010.8 0.0
20/08:30pm 19.2 16.9 10.5 57 4.7 SE 13 19 7 10 1010.3 1010.2 0.0
20/08:00pm 20.4 18.2 10.8 54 5.2 SE 13 20 7 11 1009.8 1009.7 0.0
20/07:30pm 21.0 17.2 9.9 49 6.0 S 20 26 11 14 1009.3 1009.2 0.0
20/07:00pm 21.6 18.1 10.1 48 6.2 S 19 30 10 16 1008.9 1008.8 0.0
20/06:30pm 22.1 18.1 10.3 47 6.5 S 22 35 12 19 1008.7 1008.6 0.0
20/06:00pm 23.0 18.8 11.1 47 6.6 SSW 24 35 13 19 1008.2 1008.2 0.0
20/05:30pm 23.2 19.0 9.9 43 7.3 S 22 32 12 17 1008.1 1008.1 0.0
20/05:00pm 23.2 18.3 11.3 47 6.7 SSW 28 33 15 18 1008.0 1008.0 0.0
20/04:30pm 23.5 19.7 11.2 46 6.9 SSW 22 33 12 18 1007.9 1007.9 0.0
20/04:00pm 23.0 18.7 10.8 46 6.8 S 24 35 13 19 1007.8 1007.8 0.0
20/03:30pm 23.6 20.2 12.6 50 6.3 S 22 35 12 19 1007.5 1007.5 0.0
20/03:00pm 23.1 20.2 13.0 53 5.8 S 20 37 11 20 1007.5 1007.5 0.0
20/02:30pm 23.3 21.0 14.6 58 5.2 S 20 32 11 17 1007.5 1007.5 0.0
20/02:00pm 22.4 19.4 12.6 54 5.6 SSW 20 32 11 17 1007.6 1007.6 0.0
20/01:30pm 22.2 20.1 13.5 57 5.0 S 17 28 9 15 1007.6 1007.6 0.0
20/01:00pm 21.4 18.7 12.8 58 4.9 S 19 28 10 15 1007.5 1007.5 0.0
20/12:30pm 20.6 16.6 11.8 57 4.9 S 24 35 13 19 1007.6 1007.6 0.0
20/12:00pm 20.2 17.2 12.4 61 4.4 S 20 28 11 15 1007.5 1007.5 0.0
20/11:30am 19.9 16.5 13.8 68 3.5 SSW 24 32 13 17 1007.2 1007.2 0.0

Other Formats:

Comma delimited format used in spreadsheet applications
http://www.bom.gov.au/fwo/IDS60801/IDS60801.95676.axf

JavaScript Object Notation format (JSON) in row-major order
http://www.bom.gov.au/fwo/IDS60801/IDS60801.95676.json